createdAt,value
2019-04-10T00:01:34.119Z,25.63
2019-04-10T00:04:07.546Z,27.20
2019-04-10T00:06:37.754Z,26.67
2019-04-10T00:09:08.697Z,26.63
2019-04-10T00:11:39.022Z,26.20
2019-04-10T00:14:10.299Z,26.80
2019-04-10T00:16:40.554Z,25.60
2019-04-10T00:19:10.721Z,26.60
2019-04-10T00:21:42.086Z,24.80
2019-04-10T00:24:13.566Z,27.67
2019-04-10T00:26:46.211Z,26.60
2019-04-10T00:29:18.879Z,26.67
2019-04-10T00:31:51.557Z,26.37
2019-04-10T00:34:23.370Z,27.30
2019-04-10T00:36:55.457Z,26.53
2019-04-10T00:39:28.602Z,26.73
2019-04-10T00:41:59.414Z,25.47
2019-04-10T00:44:30.162Z,26.57
2019-04-10T00:47:00.304Z,25.17
2019-04-10T00:49:31.543Z,25.97
2019-04-10T00:52:03.909Z,27.00
2019-04-10T00:54:35.263Z,26.27
2019-04-10T00:57:07.371Z,25.40
2019-04-10T00:59:38.345Z,27.23
2019-04-10T01:02:12.199Z,25.77
2019-04-10T01:04:42.851Z,24.00
2019-04-10T01:07:14.784Z,25.50
2019-04-10T01:09:45.872Z,25.50
2019-04-10T01:12:19.493Z,25.30
2019-04-10T01:14:50.387Z,25.47
2019-04-10T01:17:22.252Z,25.97
2019-04-10T01:19:54.487Z,24.97
2019-04-10T01:22:25.930Z,26.27
2019-04-10T01:24:57.794Z,25.30
2019-04-10T01:27:28.814Z,24.47
2019-04-10T01:30:02.448Z,24.67
2019-04-10T01:32:34.835Z,25.80
2019-04-10T01:35:07.882Z,25.00
2019-04-10T01:37:48.760Z,25.23
2019-04-10T01:40:10.768Z,25.43
2019-04-10T01:42:43.173Z,24.63
2019-04-10T01:45:13.890Z,25.50
2019-04-10T01:47:45.597Z,25.27
2019-04-10T01:50:18.052Z,25.30
2019-04-10T01:52:49.666Z,24.87
2019-04-10T01:55:26.655Z,25.13
2019-04-10T01:57:54.719Z,24.67
2019-04-10T02:00:26.306Z,25.43
2019-04-10T02:02:57.948Z,24.77
2019-04-10T02:05:30.317Z,25.17
2019-04-10T02:08:08.599Z,24.87
2019-04-10T02:10:36.340Z,26.73
2019-04-10T02:13:07.430Z,24.17
2019-04-10T02:15:38.915Z,25.83
2019-04-10T02:18:09.569Z,25.40
2019-04-10T02:20:40.285Z,24.53
2019-04-10T02:23:12.199Z,24.83
2019-04-10T02:25:43.602Z,23.63
2019-04-10T02:28:15.551Z,24.60
2019-04-10T02:30:47.935Z,23.80
2019-04-10T02:33:19.760Z,24.27
2019-04-10T02:35:50.799Z,25.13
2019-04-10T02:38:38.998Z,24.20
2019-04-10T02:40:53.298Z,23.60
2019-04-10T02:43:23.806Z,23.07
2019-04-10T02:45:55.908Z,23.73
2019-04-10T02:48:27.558Z,24.53
2019-04-10T02:50:59.652Z,22.63
2019-04-10T02:53:31.654Z,22.07
2019-04-10T02:56:03.095Z,24.50
2019-04-10T02:58:34.356Z,22.57
2019-04-10T03:01:07.005Z,21.80
2019-04-10T03:03:38.452Z,23.37
2019-04-10T03:06:10.014Z,24.00
2019-04-10T03:08:59.237Z,22.40
2019-04-10T03:11:24.388Z,22.67
2019-04-10T03:13:55.628Z,22.77
2019-04-10T03:16:27.310Z,22.17
2019-04-10T03:18:57.771Z,21.07
2019-04-10T03:21:29.338Z,22.67
2019-04-10T03:24:00.629Z,22.97
2019-04-10T03:26:32.057Z,23.07
2019-04-10T03:29:03.225Z,22.67
2019-04-10T03:31:36.901Z,21.97
2019-04-10T03:34:38.885Z,22.03
2019-04-10T03:37:08.030Z,21.57
2019-04-10T03:39:40.512Z,21.17
2019-04-10T03:42:12.519Z,21.73
2019-04-10T03:44:45.244Z,21.90
2019-04-10T03:47:17.926Z,22.47
2019-04-10T03:49:49.832Z,21.60
2019-04-10T03:52:21.516Z,22.53
2019-04-10T03:54:55.258Z,21.67
2019-04-10T03:57:26.794Z,22.60
2019-04-10T03:59:58.184Z,21.63
2019-04-10T04:02:31.537Z,21.70
2019-04-10T04:05:04.407Z,21.77
2019-04-10T04:07:36.926Z,21.63
2019-04-10T04:10:07.217Z,21.23
2019-04-10T04:12:37.382Z,21.63
2019-04-10T04:15:09.421Z,21.83
2019-04-10T04:17:40.144Z,20.67
2019-04-10T04:20:11.212Z,21.33
2019-04-10T04:22:41.844Z,21.43
2019-04-10T04:25:12.894Z,21.70
2019-04-10T04:27:44.241Z,20.93
2019-04-10T04:30:17.006Z,20.87
2019-04-10T04:32:48.380Z,21.57
2019-04-10T04:35:24.253Z,21.23
2019-04-10T04:37:56.011Z,21.00
2019-04-10T04:40:27.910Z,21.40
2019-04-10T04:43:00.159Z,21.33
2019-04-10T04:45:30.787Z,21.07
2019-04-10T04:48:01.903Z,19.70
2019-04-10T04:50:34.097Z,20.47
2019-04-10T04:53:07.245Z,20.13
2019-04-10T04:55:37.446Z,20.33
2019-04-10T04:58:09.610Z,20.83
2019-04-10T05:00:40.269Z,20.40
2019-04-10T05:03:11.981Z,19.23
2019-04-10T05:05:43.137Z,20.30
2019-04-10T05:08:15.310Z,18.90
2019-04-10T05:10:47.451Z,20.17
2019-04-10T05:13:18.115Z,18.87
2019-04-10T05:15:49.926Z,19.97
2019-04-10T05:18:21.215Z,19.93
2019-04-10T05:20:52.642Z,20.07
2019-04-10T05:23:24.391Z,18.97
2019-04-10T05:25:56.160Z,19.00
2019-04-10T05:28:28.548Z,18.90
2019-04-10T05:30:59.568Z,19.43
2019-04-10T05:33:31.735Z,19.03
2019-04-10T05:36:04.737Z,18.70
2019-04-10T05:38:35.757Z,19.63
2019-04-10T05:41:09.131Z,19.70
2019-04-10T05:43:40.799Z,18.57
2019-04-10T05:46:12.426Z,19.17
2019-04-10T05:48:44.132Z,19.70
2019-04-10T05:51:15.079Z,19.60
2019-04-10T05:53:47.323Z,18.93
2019-04-10T05:56:20.689Z,18.77
2019-04-10T05:58:51.405Z,19.17
2019-04-10T06:01:33.225Z,18.23
2019-04-10T06:03:54.592Z,19.33
2019-04-10T06:06:25.293Z,18.73
2019-04-10T06:08:59.082Z,19.13
2019-04-10T06:11:29.274Z,18.20
2019-04-10T06:14:01.148Z,19.30
2019-04-10T06:16:32.252Z,18.67
2019-04-10T06:19:03.957Z,19.07
2019-04-10T06:21:34.102Z,18.03
2019-04-10T06:24:05.802Z,19.30
2019-04-10T06:26:37.568Z,19.40
2019-04-10T06:29:08.637Z,18.57
2019-04-10T06:31:39.119Z,19.27
2019-04-10T06:34:09.449Z,18.53
2019-04-10T06:36:41.718Z,17.93
2019-04-10T06:39:14.105Z,17.60
2019-04-10T06:41:44.577Z,19.07
2019-04-10T06:44:15.222Z,18.93
2019-04-10T06:46:46.584Z,18.30
2019-04-10T06:49:17.831Z,17.63
2019-04-10T06:51:49.312Z,18.40
2019-04-10T06:54:23.225Z,18.13
2019-04-10T06:56:54.548Z,18.43
2019-04-10T06:59:26.537Z,18.57
2019-04-10T07:02:01.311Z,18.27
2019-04-10T07:04:28.569Z,18.10
2019-04-10T07:07:08.768Z,18.80
2019-04-10T07:09:37.839Z,18.80
2019-04-10T07:12:08.105Z,18.07
2019-04-10T07:14:45.551Z,17.97
2019-04-10T07:17:14.523Z,17.77
2019-04-10T07:19:47.455Z,18.67
2019-04-10T07:22:17.803Z,17.50
2019-04-10T07:24:54.420Z,16.67
2019-04-10T07:27:26.323Z,18.30
2019-04-10T07:29:59.779Z,18.13
2019-04-10T07:32:31.071Z,19.07
2019-04-10T07:35:03.280Z,18.87
2019-04-10T07:37:36.205Z,18.57
2019-04-10T07:40:10.243Z,17.47
2019-04-10T07:42:43.304Z,17.90
2019-04-10T07:45:14.970Z,18.37
2019-04-10T07:47:46.241Z,18.03
2019-04-10T07:50:18.353Z,18.20
2019-04-10T07:52:48.619Z,18.07
2019-04-10T07:55:21.092Z,18.47
2019-04-10T07:57:53.213Z,17.87
2019-04-10T08:00:25.085Z,17.90
2019-04-10T08:02:55.443Z,17.57
2019-04-10T08:05:27.238Z,18.40
2019-04-10T08:07:58.966Z,18.87
2019-04-10T08:10:30.753Z,18.63
2019-04-10T08:13:02.505Z,18.50
2019-04-10T08:15:33.662Z,17.93
2019-04-10T08:18:04.585Z,17.80
2019-04-10T08:20:35.286Z,18.53
2019-04-10T08:23:07.532Z,19.00
2019-04-10T08:25:40.942Z,18.20
2019-04-10T08:28:12.528Z,18.33
2019-04-10T08:30:43.950Z,17.53
2019-04-10T08:33:14.233Z,18.27
2019-04-10T08:35:45.590Z,17.50
2019-04-10T08:38:17.276Z,18.27
2019-04-10T08:40:49.235Z,18.27
2019-04-10T08:43:20.206Z,17.47
2019-04-10T08:45:52.214Z,17.10
2019-04-10T08:48:24.004Z,17.47
2019-04-10T08:50:56.730Z,17.50
2019-04-10T08:53:28.659Z,17.00
2019-04-10T08:55:59.732Z,18.13
2019-04-10T08:58:30.766Z,17.93
2019-04-10T09:01:02.908Z,17.80
2019-04-10T09:03:33.062Z,17.17
2019-04-10T09:06:03.252Z,17.53
2019-04-10T09:08:37.178Z,17.77
2019-04-10T09:11:09.098Z,18.03
2019-04-10T09:13:40.970Z,17.60
2019-04-10T09:16:12.171Z,18.17
2019-04-10T09:18:42.755Z,17.77
2019-04-10T09:21:13.921Z,18.37
2019-04-10T09:23:51.753Z,17.33
2019-04-10T09:26:20.283Z,18.17
2019-04-10T09:28:50.851Z,18.20
2019-04-10T09:31:21.808Z,17.60
2019-04-10T09:33:51.983Z,17.17
2019-04-10T09:36:22.237Z,16.63
2019-04-10T09:38:53.565Z,18.17
2019-04-10T09:41:25.911Z,17.23
2019-04-10T09:43:56.333Z,17.47
2019-04-10T09:46:26.871Z,17.97
2019-04-10T09:48:57.012Z,17.67
2019-04-10T09:51:28.087Z,16.73
2019-04-10T09:53:59.242Z,17.17
2019-04-10T09:56:32.880Z,17.77
2019-04-10T09:59:03.192Z,16.97
2019-04-10T10:01:36.390Z,17.53
2019-04-10T10:04:11.487Z,16.40
2019-04-10T10:06:41.768Z,17.27
2019-04-10T10:09:12.668Z,17.13
2019-04-10T10:11:44.855Z,16.77
2019-04-10T10:14:15.502Z,16.83
2019-04-10T10:16:46.350Z,16.07
2019-04-10T10:19:16.503Z,16.93
2019-04-10T10:21:46.691Z,15.60
2019-04-10T10:24:16.977Z,15.37
2019-04-10T10:26:47.738Z,15.17
2019-04-10T10:29:22.134Z,15.07
2019-04-10T10:31:53.732Z,15.20
2019-04-10T10:34:24.693Z,15.20
2019-04-10T10:36:55.948Z,16.53
2019-04-10T10:39:27.013Z,15.57
2019-04-10T10:41:58.569Z,17.13
2019-04-10T10:44:30.167Z,17.20
2019-04-10T10:47:11.787Z,16.80
2019-04-10T10:49:42.748Z,15.40
2019-04-10T10:52:13.300Z,14.90
2019-04-10T10:54:43.576Z,16.27
2019-04-10T10:57:15.132Z,15.03
2019-04-10T10:59:46.132Z,13.60
2019-04-10T11:02:17.107Z,13.40
2019-04-10T11:04:49.118Z,13.40
2019-04-10T11:07:20.791Z,13.10
2019-04-10T11:09:52.932Z,13.10
2019-04-10T11:12:24.129Z,14.30
2019-04-10T11:14:56.989Z,12.90
2019-04-10T11:17:29.450Z,12.50
2019-04-10T11:20:00.058Z,12.40
2019-04-10T11:22:33.156Z,13.53
2019-04-10T11:25:06.014Z,12.50
2019-04-10T11:27:39.304Z,12.90
2019-04-10T11:30:12.361Z,12.43
2019-04-10T11:32:44.486Z,12.53
2019-04-10T11:35:17.422Z,11.97
2019-04-10T11:37:53.227Z,11.93
2019-04-10T11:40:27.641Z,12.00
2019-04-10T11:43:05.096Z,12.93
2019-04-10T11:45:43.136Z,11.07
2019-04-10T11:48:12.712Z,11.97
2019-04-10T11:50:44.527Z,12.00
2019-04-10T11:53:19.049Z,11.70
2019-04-10T11:55:53.086Z,11.13
2019-04-10T11:58:25.211Z,12.03
2019-04-10T12:00:58.052Z,11.20
2019-04-10T12:03:28.329Z,11.77
2019-04-10T12:05:59.837Z,12.75
2019-04-10T12:08:55.274Z,10.40
2019-04-10T12:13:36.582Z,11.03
2019-04-10T12:16:09.278Z,10.88
2019-04-10T12:18:40.631Z,11.63
2019-04-10T12:21:11.874Z,11.48
2019-04-10T12:23:47.345Z,12.35
2019-04-10T12:26:21.992Z,12.75
2019-04-10T12:28:54.392Z,11.90
2019-04-10T12:31:25.835Z,12.20
2019-04-10T12:33:57.131Z,12.00
2019-04-10T12:36:28.804Z,11.90
2019-04-10T12:39:03.703Z,12.15
2019-04-10T12:41:36.527Z,11.78
2019-04-10T12:44:07.922Z,12.28
2019-04-10T12:46:39.467Z,12.80
2019-04-10T12:49:09.772Z,11.75
2019-04-10T12:51:41.664Z,11.70
2019-04-10T12:54:13.212Z,12.80
2019-04-10T12:56:43.721Z,11.75
2019-04-10T12:59:15.287Z,12.13
2019-04-10T13:01:47.036Z,12.23
2019-04-10T13:04:18.027Z,13.00
2019-04-10T13:06:51.018Z,12.20
2019-04-10T13:09:22.132Z,13.00
2019-04-10T13:11:53.097Z,13.22
2019-04-10T13:14:24.428Z,12.58
2019-04-10T13:16:54.633Z,12.75
2019-04-10T13:19:24.932Z,11.97
2019-04-10T13:21:57.867Z,11.25
2019-04-10T13:24:30.355Z,13.08
2019-04-10T13:27:00.567Z,12.95
2019-04-10T13:29:32.227Z,13.43
2019-04-10T13:32:03.488Z,13.05
2019-04-10T13:34:33.666Z,13.20
2019-04-10T13:37:04.098Z,12.78
2019-04-10T13:39:36.965Z,12.13
2019-04-10T13:42:09.306Z,12.47
2019-04-10T13:44:42.781Z,11.95
2019-04-10T13:47:13.398Z,12.25
2019-04-10T13:49:44.199Z,12.78
2019-04-10T13:52:15.964Z,11.05
2019-04-10T13:54:47.195Z,10.58
2019-04-10T13:57:18.150Z,10.30
2019-04-10T13:59:49.082Z,10.60
2019-04-10T14:02:32.310Z,11.63
2019-04-10T14:05:05.274Z,10.82
2019-04-10T14:07:36.057Z,9.85
2019-04-10T14:10:10.518Z,9.55
2019-04-10T14:12:41.172Z,9.80
2019-04-10T14:15:13.921Z,10.40
2019-04-10T14:17:44.176Z,9.88
2019-04-10T14:20:17.321Z,9.45
2019-04-10T14:23:08.433Z,9.45
2019-04-10T14:26:18.451Z,8.63
2019-04-10T14:28:51.394Z,9.03
2019-04-10T14:31:34.701Z,9.20
2019-04-10T14:34:05.500Z,9.33
2019-04-10T14:36:38.068Z,8.90
2019-04-10T14:39:18.293Z,8.68
2019-04-10T14:41:46.974Z,9.40
2019-04-10T14:44:18.828Z,10.25
2019-04-10T14:46:49.694Z,9.90
2019-04-10T14:49:20.869Z,8.85
2019-04-10T14:51:52.395Z,8.78
2019-04-10T14:54:23.801Z,8.70
2019-04-10T14:56:54.604Z,9.68
2019-04-10T14:59:24.734Z,9.88
2019-04-10T15:01:56.458Z,10.85
2019-04-10T15:04:26.950Z,10.20
2019-04-10T15:06:57.584Z,8.88
2019-04-10T15:09:29.217Z,10.38
2019-04-10T15:12:00.434Z,10.32
2019-04-10T15:14:33.873Z,10.58
2019-04-10T15:17:04.797Z,9.38
2019-04-10T15:19:36.424Z,9.75
2019-04-10T15:22:07.688Z,10.50
2019-04-10T15:24:37.933Z,10.60
2019-04-10T15:27:09.640Z,11.38
2019-04-10T15:29:40.871Z,10.55
2019-04-10T15:32:12.780Z,10.03
2019-04-10T15:34:43.743Z,10.50
2019-04-10T15:37:15.213Z,10.85
2019-04-10T15:39:46.589Z,11.93
2019-04-10T15:42:21.768Z,13.28
2019-04-10T15:44:52.793Z,12.28
2019-04-10T15:47:23.506Z,13.03
2019-04-10T15:49:53.707Z,14.23
2019-04-10T15:52:24.372Z,14.27
2019-04-10T15:54:59.365Z,13.13
2019-04-10T15:57:44.253Z,14.47
2019-04-10T16:00:10.722Z,14.50
2019-04-10T16:02:44.792Z,15.63
2019-04-10T16:05:16.097Z,15.07
2019-04-10T16:07:46.928Z,15.87
2019-04-10T16:10:33.949Z,16.27
2019-04-10T16:13:10.848Z,15.73
2019-04-10T16:15:45.029Z,16.20
2019-04-10T16:18:18.970Z,15.47
2019-04-10T16:20:50.743Z,15.77
2019-04-10T16:23:40.104Z,15.90
2019-04-10T16:26:11.397Z,15.83
2019-04-10T16:28:43.133Z,16.27
2019-04-10T16:31:15.138Z,15.03
2019-04-10T16:33:45.594Z,14.70
2019-04-10T16:36:17.161Z,15.07
2019-04-10T16:38:47.458Z,15.67
2019-04-10T16:41:17.768Z,16.33
2019-04-10T16:43:52.795Z,15.10
2019-04-10T16:46:25.155Z,15.60
2019-04-10T16:48:56.706Z,15.63
2019-04-10T16:51:28.094Z,15.07
2019-04-10T16:53:58.739Z,15.10
2019-04-10T16:56:32.209Z,15.37
2019-04-10T16:59:08.764Z,15.33
2019-04-10T17:01:39.685Z,15.83
2019-04-10T17:04:11.235Z,14.90
2019-04-10T17:06:44.226Z,14.37
2019-04-10T17:09:19.131Z,14.63
2019-04-10T17:11:51.219Z,14.87
2019-04-10T17:14:23.832Z,14.90
2019-04-10T17:16:55.681Z,14.13
2019-04-10T17:19:28.879Z,14.30
2019-04-10T17:22:00.622Z,14.60
2019-04-10T17:24:31.396Z,13.37
2019-04-10T17:27:02.071Z,14.20
2019-04-10T17:29:39.048Z,13.63
2019-04-10T17:32:11.089Z,14.27
2019-04-10T17:34:43.088Z,13.97
2019-04-10T17:37:13.766Z,13.27
2019-04-10T17:39:45.211Z,13.13
2019-04-10T17:42:16.902Z,12.80
2019-04-10T17:44:49.779Z,13.43
2019-04-10T17:47:23.203Z,13.33
2019-04-10T17:49:53.947Z,13.77
2019-04-10T17:52:27.114Z,14.33
2019-04-10T17:55:00.951Z,13.50
2019-04-10T17:57:38.361Z,13.83
2019-04-10T18:00:09.208Z,13.73
2019-04-10T18:02:41.328Z,13.43
2019-04-10T18:05:12.661Z,13.73
2019-04-10T18:07:44.049Z,12.93
2019-04-10T18:10:16.114Z,13.77
2019-04-10T18:12:46.447Z,13.27
2019-04-10T18:15:17.663Z,13.63
2019-04-10T18:17:49.474Z,13.47
2019-04-10T18:20:19.983Z,14.17
2019-04-10T18:22:51.869Z,14.23
2019-04-10T18:25:22.260Z,13.03
2019-04-10T18:27:52.889Z,13.70
2019-04-10T18:30:24.825Z,13.13
2019-04-10T18:32:56.169Z,13.27
2019-04-10T18:35:27.437Z,13.20
2019-04-10T18:37:58.659Z,13.27
2019-04-10T18:40:30.041Z,13.37
2019-04-10T18:43:02.294Z,13.80
2019-04-10T18:45:35.616Z,13.20
2019-04-10T18:48:08.618Z,13.53
2019-04-10T18:50:40.606Z,13.73
2019-04-10T18:53:13.112Z,13.10
2019-04-10T18:55:44.812Z,12.33
2019-04-10T18:58:21.183Z,11.97
2019-04-10T19:01:13.181Z,12.57
2019-04-10T19:03:59.224Z,12.10
2019-04-10T19:06:36.269Z,11.83
2019-04-10T19:09:14.299Z,12.57
2019-04-10T19:11:41.538Z,12.80
2019-04-10T19:14:12.289Z,12.20
2019-04-10T19:16:43.659Z,12.33
2019-04-10T19:19:14.588Z,12.63
2019-04-10T19:21:46.136Z,12.17
2019-04-10T19:24:17.354Z,12.37
2019-04-10T19:26:48.086Z,12.23
2019-04-10T19:29:19.245Z,11.33
2019-04-10T19:31:54.133Z,11.70
2019-04-10T19:34:25.513Z,11.87
2019-04-10T19:36:56.378Z,11.60
2019-04-10T19:39:26.980Z,12.33
2019-04-10T19:41:57.675Z,11.27
2019-04-10T19:44:28.950Z,12.03
2019-04-10T19:47:02.076Z,12.00
2019-04-10T19:49:34.926Z,12.20
2019-04-10T19:52:06.489Z,11.77
2019-04-10T19:54:36.618Z,11.77
2019-04-10T19:57:07.585Z,11.37
2019-04-10T19:59:40.016Z,10.87
2019-04-10T20:02:11.427Z,11.03
2019-04-10T20:04:41.618Z,11.70
2019-04-10T20:07:13.088Z,11.97
2019-04-10T20:09:44.410Z,11.00
2019-04-10T20:12:16.257Z,11.23
2019-04-10T20:14:46.867Z,11.53
2019-04-10T20:17:19.813Z,10.70
2019-04-10T20:19:52.685Z,11.07
2019-04-10T20:22:27.953Z,10.53
2019-04-10T20:25:00.461Z,10.20
2019-04-10T20:27:32.141Z,11.03
2019-04-10T20:30:05.737Z,10.40
2019-04-10T20:32:38.611Z,11.10
2019-04-10T20:35:10.281Z,10.77
2019-04-10T20:37:42.964Z,10.13
2019-04-10T20:40:15.937Z,10.20
2019-04-10T20:42:48.707Z,10.87
2019-04-10T20:45:21.133Z,11.10
2019-04-10T20:47:52.827Z,10.47
2019-04-10T20:50:23.964Z,10.40
2019-04-10T20:52:55.833Z,10.53
2019-04-10T20:55:28.254Z,9.80
2019-04-10T20:58:00.238Z,10.47
2019-04-10T21:00:34.359Z,10.43
2019-04-10T21:03:07.122Z,10.37
2019-04-10T21:05:37.663Z,11.33
2019-04-10T21:08:09.430Z,10.70
2019-04-10T21:10:40.873Z,10.87
2019-04-10T21:13:12.946Z,10.57
2019-04-10T21:15:46.306Z,11.17
2019-04-10T21:18:19.680Z,10.47
2019-04-10T21:20:53.631Z,10.87
2019-04-10T21:23:25.123Z,10.60
2019-04-10T21:25:55.629Z,10.80
2019-04-10T21:28:26.022Z,10.23
2019-04-10T21:31:15.757Z,10.97
2019-04-10T21:34:11.957Z,10.77
2019-04-10T21:36:43.507Z,11.00
2019-04-10T21:39:13.874Z,9.90
2019-04-10T21:41:45.228Z,10.73
2019-04-10T21:44:16.124Z,10.97
2019-04-10T21:46:48.412Z,10.20
2019-04-10T21:49:20.623Z,10.57
2019-04-10T21:51:51.690Z,10.97
2019-04-10T21:54:24.522Z,10.30
2019-04-10T21:56:55.616Z,11.27
2019-04-10T21:59:26.866Z,10.37
2019-04-10T22:01:59.223Z,10.10
2019-04-10T22:04:30.958Z,10.13
2019-04-10T22:07:18.906Z,10.33
2019-04-10T22:10:01.527Z,10.20
2019-04-10T22:12:38.994Z,10.67
2019-04-10T22:15:06.574Z,10.47
2019-04-10T22:17:36.794Z,11.03
2019-04-10T22:20:09.629Z,10.10
2019-04-10T22:22:40.803Z,11.80
2019-04-10T22:25:13.119Z,10.40
2019-04-10T22:27:44.155Z,10.17
2019-04-10T22:30:15.168Z,10.53
2019-04-10T22:32:45.649Z,10.87
2019-04-10T22:35:19.445Z,11.77
2019-04-10T22:37:50.362Z,10.33
2019-04-10T22:40:21.514Z,10.20
2019-04-10T22:42:53.173Z,10.33
2019-04-10T22:45:30.981Z,10.20
2019-04-10T22:48:01.348Z,10.23
2019-04-10T22:50:32.901Z,10.03
2019-04-10T22:53:05.385Z,10.73
2019-04-10T22:55:38.061Z,10.23
2019-04-10T22:58:09.002Z,10.23
2019-04-10T23:00:39.838Z,10.30
2019-04-10T23:03:11.394Z,9.63
2019-04-10T23:05:44.755Z,10.63
2019-04-10T23:08:15.617Z,9.97
2019-04-10T23:10:45.882Z,9.90
2019-04-10T23:13:18.040Z,9.57
2019-04-10T23:15:51.465Z,9.90
2019-04-10T23:18:22.087Z,9.27
2019-04-10T23:20:54.696Z,9.37
2019-04-10T23:23:25.585Z,9.53
2019-04-10T23:25:58.483Z,9.77
2019-04-10T23:28:28.781Z,9.73
2019-04-10T23:30:59.456Z,8.90
2019-04-10T23:33:30.192Z,9.27
2019-04-10T23:36:02.132Z,10.43
2019-04-10T23:38:33.251Z,9.77
2019-04-10T23:41:05.368Z,9.90
2019-04-10T23:43:36.352Z,10.33
2019-04-10T23:46:08.356Z,9.17
2019-04-10T23:48:39.492Z,9.30
2019-04-10T23:51:10.659Z,9.50
2019-04-10T23:53:41.973Z,9.63
2019-04-10T23:56:15.588Z,9.00
2019-04-10T23:58:48.056Z,10.10
